createdAt,value
2023-03-02T00:01:13.739Z,16.70
2023-03-02T00:03:42.684Z,16.90
2023-03-02T00:06:12.336Z,16.97
2023-03-02T00:08:41.098Z,16.03
2023-03-02T00:11:09.363Z,16.30
2023-03-02T00:13:39.112Z,14.70
2023-03-02T00:16:08.421Z,13.03
2023-03-02T00:18:36.639Z,15.90
2023-03-02T00:21:05.051Z,13.73
2023-03-02T00:23:34.716Z,15.23
2023-03-02T00:26:02.880Z,14.57
2023-03-02T00:28:30.997Z,14.53
2023-03-02T00:30:59.271Z,13.93
2023-03-02T00:33:27.753Z,13.50
2023-03-02T00:35:55.990Z,15.03
2023-03-02T00:38:24.208Z,13.03
2023-03-02T00:40:53.738Z,13.30
2023-03-02T00:43:22.916Z,15.00
2023-03-02T00:45:53.217Z,13.70
2023-03-02T00:48:21.399Z,12.90
2023-03-02T00:50:49.548Z,14.37
2023-03-02T00:53:18.181Z,14.57
2023-03-02T00:55:56.269Z,14.37
2023-03-02T00:58:24.433Z,15.33
2023-03-02T01:00:52.683Z,16.13
2023-03-02T01:03:21.102Z,14.87
2023-03-02T01:05:49.483Z,19.10
2023-03-02T01:08:17.723Z,15.53
2023-03-02T01:10:45.835Z,16.60
2023-03-02T01:13:15.379Z,16.17
2023-03-02T01:15:43.586Z,16.33
2023-03-02T01:18:12.878Z,15.67
2023-03-02T01:20:41.299Z,16.43
2023-03-02T01:23:09.594Z,19.50
2023-03-02T01:25:39.093Z,18.00
2023-03-02T01:28:07.266Z,19.50
2023-03-02T01:30:36.830Z,14.70
2023-03-02T01:33:05.105Z,15.93
2023-03-02T01:35:33.309Z,15.93
2023-03-02T01:38:01.433Z,15.23
2023-03-02T01:40:29.681Z,16.40
2023-03-02T01:43:02.429Z,14.67
2023-03-02T01:45:53.805Z,15.63
2023-03-02T01:48:28.823Z,17.10
2023-03-02T01:50:58.589Z,12.30
2023-03-02T01:53:28.596Z,15.03
2023-03-02T01:55:57.745Z,15.47
2023-03-02T01:58:26.902Z,16.10
2023-03-02T02:00:57.533Z,14.53
2023-03-02T02:03:29.943Z,15.93
2023-03-02T02:06:07.320Z,14.90
2023-03-02T02:08:35.803Z,15.43
2023-03-02T02:11:03.953Z,14.97
2023-03-02T02:13:32.118Z,14.80
2023-03-02T02:16:02.052Z,15.00
2023-03-02T02:18:30.178Z,15.40
2023-03-02T02:20:58.665Z,14.80
2023-03-02T02:23:29.952Z,15.27
2023-03-02T02:26:18.739Z,14.40
2023-03-02T02:28:57.910Z,13.13
2023-03-02T02:31:31.686Z,15.13
2023-03-02T02:34:05.657Z,13.37
2023-03-02T02:36:39.734Z,12.57
2023-03-02T02:39:12.776Z,14.77
2023-03-02T02:41:43.606Z,16.77
2023-03-02T02:44:14.587Z,19.13
2023-03-02T02:46:42.956Z,19.17
2023-03-02T02:49:22.575Z,15.87
2023-03-02T02:51:50.724Z,18.60
2023-03-02T02:54:19.853Z,19.30
2023-03-02T02:56:51.312Z,21.63
2023-03-02T02:59:23.058Z,17.03
2023-03-02T03:01:52.144Z,20.20
2023-03-02T03:04:21.931Z,19.90
2023-03-02T03:06:55.386Z,25.40
2023-03-02T03:09:24.303Z,25.00
2023-03-02T03:11:55.910Z,19.40
2023-03-02T03:14:29.154Z,22.27
2023-03-02T03:16:57.408Z,21.00
2023-03-02T03:19:28.270Z,20.13
2023-03-02T03:21:58.808Z,18.13
2023-03-02T03:24:28.090Z,17.10
2023-03-02T03:26:59.195Z,17.00
2023-03-02T03:29:28.902Z,16.47
2023-03-02T03:31:58.944Z,18.13
2023-03-02T03:34:28.644Z,19.00
2023-03-02T03:37:01.742Z,18.73
2023-03-02T03:39:30.754Z,20.23
2023-03-02T03:42:00.260Z,18.40
2023-03-02T03:44:28.647Z,18.30
2023-03-02T03:46:56.938Z,21.03
2023-03-02T03:49:25.149Z,16.33
2023-03-02T03:51:53.714Z,18.07
2023-03-02T03:54:22.417Z,21.57
2023-03-02T03:56:51.474Z,18.70
2023-03-02T03:59:24.683Z,18.30
2023-03-02T04:01:55.687Z,17.23
2023-03-02T04:04:26.863Z,16.47
2023-03-02T04:06:55.558Z,18.87
2023-03-02T04:09:24.516Z,20.07
2023-03-02T04:11:54.729Z,20.17
2023-03-02T04:14:25.581Z,17.80
2023-03-02T04:16:53.994Z,22.37
2023-03-02T04:19:22.872Z,16.97
2023-03-02T04:21:53.032Z,20.17
2023-03-02T04:24:23.270Z,19.00
2023-03-02T04:26:51.796Z,16.83
2023-03-02T04:29:20.162Z,18.83
2023-03-02T04:31:49.650Z,18.13
2023-03-02T04:34:17.853Z,16.27
2023-03-02T04:36:46.649Z,14.40
2023-03-02T04:39:16.173Z,16.00
2023-03-02T04:41:44.287Z,18.20
2023-03-02T04:44:13.110Z,15.60
2023-03-02T04:46:44.547Z,16.10
2023-03-02T04:49:15.386Z,17.43
2023-03-02T04:51:46.077Z,17.23
2023-03-02T04:54:17.513Z,19.07
2023-03-02T04:56:48.520Z,21.13
2023-03-02T04:59:16.985Z,14.73
2023-03-02T05:01:45.836Z,16.30
2023-03-02T05:04:15.892Z,18.17
2023-03-02T05:06:44.182Z,19.23
2023-03-02T05:09:12.744Z,17.50
2023-03-02T05:11:41.276Z,18.13
2023-03-02T05:14:12.570Z,19.87
2023-03-02T05:16:42.196Z,18.33
2023-03-02T05:19:12.522Z,17.23
2023-03-02T05:21:42.436Z,16.67
2023-03-02T05:24:10.921Z,15.10
2023-03-02T05:26:39.298Z,16.40
2023-03-02T05:29:07.587Z,16.37
2023-03-02T05:31:39.043Z,19.60
2023-03-02T05:34:09.936Z,16.10
2023-03-02T05:36:38.597Z,19.00
2023-03-02T05:39:09.073Z,20.27
2023-03-02T05:41:37.936Z,20.87
2023-03-02T05:44:09.421Z,21.33
2023-03-02T05:46:37.725Z,24.10
2023-03-02T05:49:06.288Z,24.17
2023-03-02T05:51:34.541Z,24.57
2023-03-02T05:54:03.133Z,21.77
2023-03-02T05:56:33.137Z,18.93
2023-03-02T05:59:01.830Z,21.00
2023-03-02T06:01:30.057Z,20.20
2023-03-02T06:03:58.209Z,19.27
2023-03-02T06:06:26.478Z,21.00
2023-03-02T06:08:54.786Z,18.90
2023-03-02T06:11:22.991Z,18.60
2023-03-02T06:13:52.549Z,20.63
2023-03-02T06:16:20.773Z,19.97
2023-03-02T06:18:49.133Z,19.33
2023-03-02T06:21:17.311Z,21.27
2023-03-02T06:23:45.560Z,21.27
2023-03-02T06:26:14.166Z,19.23
2023-03-02T06:28:52.225Z,18.60
2023-03-02T06:31:23.337Z,19.17
2023-03-02T06:33:51.933Z,24.37
2023-03-02T06:36:20.437Z,19.70
2023-03-02T06:38:48.664Z,19.60
2023-03-02T06:41:17.378Z,17.87
2023-03-02T06:43:45.628Z,19.07
2023-03-02T06:46:14.371Z,16.13
2023-03-02T06:48:44.027Z,18.80
2023-03-02T06:51:12.775Z,20.23
2023-03-02T06:53:41.047Z,22.50
2023-03-02T06:56:09.434Z,20.83
2023-03-02T06:58:38.269Z,23.00
2023-03-02T07:01:07.888Z,23.67
2023-03-02T07:03:37.014Z,22.73
2023-03-02T07:06:07.121Z,24.57
2023-03-02T07:08:36.071Z,24.03
2023-03-02T07:11:07.566Z,24.40
2023-03-02T07:13:38.032Z,22.93
2023-03-02T07:16:10.460Z,22.73
2023-03-02T07:18:39.057Z,23.07
2023-03-02T07:21:08.855Z,26.13
2023-03-02T07:23:37.238Z,23.33
2023-03-02T07:26:08.501Z,23.23
2023-03-02T07:28:39.538Z,26.33
2023-03-02T07:31:07.928Z,25.30
2023-03-02T07:33:36.347Z,21.80
2023-03-02T07:36:04.676Z,21.00
2023-03-02T07:38:34.550Z,21.63
2023-03-02T07:41:06.915Z,19.60
2023-03-02T07:43:36.664Z,20.33
2023-03-02T07:46:05.436Z,25.90
2023-03-02T07:48:34.343Z,35.57
2023-03-02T07:51:03.451Z,22.00
2023-03-02T07:53:33.173Z,24.17
2023-03-02T07:56:02.338Z,27.00
2023-03-02T07:58:30.569Z,22.83
2023-03-02T08:00:58.741Z,21.37
2023-03-02T08:03:26.942Z,25.00
2023-03-02T08:05:55.180Z,24.77
2023-03-02T08:08:23.294Z,23.40
2023-03-02T08:10:52.883Z,22.47
2023-03-02T08:13:21.129Z,25.23
2023-03-02T08:15:49.214Z,24.77
2023-03-02T08:18:17.331Z,21.53
2023-03-02T08:20:45.549Z,29.40
2023-03-02T08:23:13.726Z,23.30
2023-03-02T08:25:43.680Z,24.70
2023-03-02T08:28:13.344Z,23.00
2023-03-02T08:30:41.615Z,35.97
2023-03-02T08:33:09.862Z,35.10
2023-03-02T08:35:38.046Z,25.77
2023-03-02T08:38:06.263Z,25.90
2023-03-02T08:40:34.963Z,23.50
2023-03-02T08:43:03.075Z,26.60
2023-03-02T08:45:32.715Z,21.83
2023-03-02T08:48:00.904Z,23.90
2023-03-02T08:50:29.100Z,23.53
2023-03-02T08:52:57.276Z,23.07
2023-03-02T08:55:25.639Z,23.70
2023-03-02T08:57:54.381Z,27.73
2023-03-02T09:00:22.999Z,25.80
2023-03-02T09:02:52.557Z,27.17
2023-03-02T09:05:20.694Z,25.43
2023-03-02T09:07:48.831Z,23.07
2023-03-02T09:10:17.011Z,28.37
2023-03-02T09:12:45.231Z,27.10
2023-03-02T09:15:13.445Z,148.10
2023-03-02T09:17:41.646Z,41.20
2023-03-02T09:20:12.829Z,25.60
2023-03-02T09:22:42.633Z,26.07
2023-03-02T09:25:11.006Z,27.20
2023-03-02T09:27:39.162Z,27.37
2023-03-02T09:30:08.552Z,25.67
2023-03-02T09:32:37.014Z,25.30
2023-03-02T09:35:05.869Z,24.50
2023-03-02T09:37:38.753Z,26.63
2023-03-02T09:40:14.124Z,27.13
2023-03-02T09:43:02.700Z,24.77
2023-03-02T09:45:52.344Z,28.07
2023-03-02T09:48:32.823Z,28.20
2023-03-02T09:51:16.635Z,26.90
2023-03-02T09:53:52.673Z,27.23
2023-03-02T09:56:22.236Z,26.67
2023-03-02T09:58:57.126Z,28.67
2023-03-02T10:01:35.789Z,25.93
2023-03-02T10:04:14.544Z,26.73
2023-03-02T10:06:42.878Z,49.47
2023-03-02T10:09:12.756Z,32.90
2023-03-02T10:11:54.889Z,37.23
2023-03-02T10:14:27.215Z,26.73
2023-03-02T10:17:11.012Z,24.40
2023-03-02T10:19:45.616Z,22.63
2023-03-02T10:22:20.939Z,28.67
2023-03-02T10:24:58.488Z,25.00
2023-03-02T10:27:29.395Z,25.80
2023-03-02T10:30:02.456Z,25.80
2023-03-02T10:32:33.970Z,25.20
2023-03-02T10:35:11.829Z,25.63
2023-03-02T10:37:40.271Z,29.53
2023-03-02T10:40:22.804Z,29.20
2023-03-02T10:42:51.404Z,26.70
2023-03-02T10:45:25.644Z,24.90
2023-03-02T10:48:02.172Z,26.27
2023-03-02T10:50:31.373Z,27.20
2023-03-02T10:53:02.013Z,26.63
2023-03-02T10:55:34.529Z,27.73
2023-03-02T10:58:05.543Z,25.03
2023-03-02T11:00:35.532Z,24.60
2023-03-02T11:03:05.721Z,24.83
2023-03-02T11:05:36.216Z,25.80
2023-03-02T11:08:06.552Z,24.40
2023-03-02T11:10:38.337Z,24.57
2023-03-02T11:13:19.674Z,22.53
2023-03-02T11:15:49.556Z,27.27
2023-03-02T11:18:29.062Z,24.13
2023-03-02T11:21:02.246Z,25.73
2023-03-02T11:23:42.220Z,25.07
2023-03-02T11:26:19.726Z,23.57
2023-03-02T11:28:52.696Z,26.57
2023-03-02T11:31:30.091Z,23.37
2023-03-02T11:34:16.749Z,23.33
2023-03-02T11:36:55.506Z,24.53
2023-03-02T11:39:30.171Z,26.57
2023-03-02T11:41:59.807Z,23.63
2023-03-02T11:44:29.102Z,20.70
2023-03-02T11:47:01.917Z,23.00
2023-03-02T11:49:39.322Z,20.23
2023-03-02T11:52:16.923Z,19.27
2023-03-02T11:54:47.668Z,21.83
2023-03-02T11:57:24.194Z,20.20
2023-03-02T11:59:53.798Z,31.90
2023-03-02T12:02:22.350Z,28.20
2023-03-02T12:04:51.022Z,34.60
2023-03-02T12:07:24.055Z,23.90
2023-03-02T12:10:01.492Z,24.13
2023-03-02T12:12:42.035Z,21.63
2023-03-02T12:15:41.347Z,23.00
2023-03-02T12:18:45.072Z,24.30
2023-03-02T12:21:16.573Z,19.80
2023-03-02T12:24:06.340Z,19.87
2023-03-02T12:26:37.079Z,21.73
2023-03-02T12:29:23.742Z,19.50
2023-03-02T12:31:53.493Z,18.80
2023-03-02T12:34:36.088Z,18.33
2023-03-02T12:37:09.291Z,27.10
2023-03-02T12:40:20.548Z,28.77
2023-03-02T12:43:10.465Z,26.20
2023-03-02T12:45:54.010Z,25.33
2023-03-02T12:48:27.951Z,23.17
2023-03-02T12:51:01.088Z,20.83
2023-03-02T12:53:29.534Z,22.83
2023-03-02T12:55:58.029Z,23.73
2023-03-02T12:58:28.760Z,22.27
2023-03-02T13:01:00.706Z,20.03
2023-03-02T13:03:31.276Z,18.20
2023-03-02T13:06:04.046Z,20.33
2023-03-02T13:08:33.164Z,17.83
2023-03-02T13:11:03.448Z,17.77
2023-03-02T13:13:38.049Z,20.63
2023-03-02T13:16:19.432Z,16.03
2023-03-02T13:18:49.904Z,27.57
2023-03-02T13:21:20.003Z,18.80
2023-03-02T13:23:51.724Z,19.73
2023-03-02T13:26:27.150Z,20.10
2023-03-02T13:29:03.110Z,20.03
2023-03-02T13:31:33.363Z,19.33
2023-03-02T13:34:02.164Z,22.43
2023-03-02T13:36:35.414Z,21.33
2023-03-02T13:39:07.047Z,20.67
2023-03-02T13:41:37.623Z,24.43
2023-03-02T13:44:19.751Z,24.20
2023-03-02T13:46:49.776Z,24.10
2023-03-02T13:49:28.288Z,28.63
2023-03-02T13:52:01.874Z,31.37
2023-03-02T13:54:32.102Z,30.47
2023-03-02T13:57:02.318Z,33.97
2023-03-02T13:59:32.526Z,26.23
2023-03-02T14:02:02.153Z,23.70
2023-03-02T14:04:30.426Z,22.20
2023-03-02T14:06:58.746Z,26.37
2023-03-02T14:09:27.815Z,23.80
2023-03-02T14:11:57.855Z,20.80
2023-03-02T14:14:29.030Z,22.07
2023-03-02T14:16:58.030Z,20.70
2023-03-02T14:19:27.641Z,24.13
2023-03-02T14:21:55.819Z,22.07
2023-03-02T14:24:24.076Z,23.93
2023-03-02T14:26:52.260Z,25.17
2023-03-02T14:29:26.149Z,23.27
2023-03-02T14:31:55.103Z,19.17
2023-03-02T14:34:23.672Z,22.20
2023-03-02T14:36:55.549Z,22.67
2023-03-02T14:39:35.316Z,30.37
2023-03-02T14:42:04.473Z,22.83
2023-03-02T14:44:32.659Z,24.97
2023-03-02T14:47:00.867Z,19.30
2023-03-02T14:49:29.081Z,19.87
2023-03-02T14:52:02.665Z,21.43
2023-03-02T14:54:37.985Z,20.93
2023-03-02T14:57:08.007Z,19.63
2023-03-02T14:59:36.095Z,17.20
2023-03-02T15:02:15.914Z,17.40
2023-03-02T15:04:56.122Z,16.83
2023-03-02T15:07:27.109Z,21.40
2023-03-02T15:09:56.058Z,20.87
2023-03-02T15:12:24.250Z,18.93
2023-03-02T15:14:52.691Z,19.17
2023-03-02T15:17:20.978Z,26.70
2023-03-02T15:19:49.517Z,21.60
2023-03-02T15:22:17.715Z,22.13
2023-03-02T15:24:47.357Z,25.80
2023-03-02T15:27:15.646Z,20.67
2023-03-02T15:29:45.945Z,22.60
2023-03-02T15:32:14.779Z,22.73
2023-03-02T15:34:43.144Z,16.50
2023-03-02T15:37:11.967Z,20.07
2023-03-02T15:39:42.656Z,18.13
2023-03-02T15:42:13.892Z,16.27
2023-03-02T15:44:42.308Z,16.37
2023-03-02T15:47:12.633Z,17.23
2023-03-02T15:49:41.066Z,18.60
2023-03-02T15:52:09.421Z,17.00
2023-03-02T15:54:37.635Z,16.43
2023-03-02T15:57:05.962Z,16.80
2023-03-02T15:59:35.957Z,17.53
2023-03-02T16:02:04.807Z,17.57
2023-03-02T16:04:34.627Z,19.67
2023-03-02T16:07:02.926Z,18.30
2023-03-02T16:09:31.556Z,17.87
2023-03-02T16:12:00.198Z,18.10
2023-03-02T16:14:28.334Z,17.33
2023-03-02T16:16:58.059Z,17.07
2023-03-02T16:19:26.953Z,18.93
2023-03-02T16:21:55.146Z,19.73
2023-03-02T16:24:23.302Z,22.23
2023-03-02T16:26:54.281Z,28.00
2023-03-02T16:29:22.562Z,23.40
2023-03-02T16:31:50.943Z,20.13
2023-03-02T16:34:20.583Z,20.87
2023-03-02T16:36:48.773Z,27.13
2023-03-02T16:39:17.327Z,21.17
2023-03-02T16:41:46.220Z,20.70
2023-03-02T16:44:14.628Z,20.63
2023-03-02T16:46:43.616Z,18.97
2023-03-02T16:49:12.484Z,18.47
2023-03-02T16:51:43.263Z,19.37
2023-03-02T16:54:12.302Z,19.80
2023-03-02T16:56:45.142Z,18.27
2023-03-02T16:59:13.437Z,16.30
2023-03-02T17:01:41.899Z,19.20
2023-03-02T17:04:10.298Z,18.83
2023-03-02T17:06:40.092Z,25.53
2023-03-02T17:09:13.418Z,19.57
2023-03-02T17:11:41.863Z,18.33
2023-03-02T17:14:10.027Z,26.23
2023-03-02T17:16:41.431Z,18.73
2023-03-02T17:19:09.871Z,26.33
2023-03-02T17:21:38.143Z,25.33
2023-03-02T17:24:06.639Z,24.87
2023-03-02T17:26:36.222Z,25.43
2023-03-02T17:29:04.585Z,26.90
2023-03-02T17:31:32.879Z,26.07
2023-03-02T17:34:01.181Z,35.67
2023-03-02T17:36:29.453Z,72.83
2023-03-02T17:38:57.619Z,52.73
2023-03-02T17:41:25.743Z,42.87
2023-03-02T17:43:55.402Z,42.17
2023-03-02T17:46:25.560Z,34.47
2023-03-02T17:48:55.765Z,32.20
2023-03-02T17:51:24.430Z,31.70
2023-03-02T17:53:54.011Z,39.60
2023-03-02T17:56:25.000Z,46.80
2023-03-02T17:58:55.703Z,43.07
2023-03-02T18:01:23.987Z,40.70
2023-03-02T18:03:52.539Z,39.10
2023-03-02T18:06:20.835Z,46.50
2023-03-02T18:08:50.085Z,46.30
2023-03-02T18:11:19.282Z,44.70
2023-03-02T18:13:47.508Z,41.23
2023-03-02T18:16:17.198Z,39.53
2023-03-02T18:18:45.480Z,37.00
2023-03-02T18:21:13.679Z,33.90
2023-03-02T18:23:42.205Z,37.77
2023-03-02T18:26:11.273Z,38.43
2023-03-02T18:28:40.263Z,31.73
2023-03-02T18:31:09.319Z,29.20
2023-03-02T18:33:39.023Z,25.47
2023-03-02T18:36:07.868Z,24.27
2023-03-02T18:38:37.525Z,29.67
2023-03-02T18:41:07.794Z,30.00
2023-03-02T18:43:41.648Z,26.80
2023-03-02T18:46:19.680Z,25.47
2023-03-02T18:48:50.222Z,25.13
2023-03-02T18:51:18.811Z,28.67
2023-03-02T18:53:47.580Z,24.07
2023-03-02T18:56:16.610Z,26.43
2023-03-02T18:58:45.764Z,25.43
2023-03-02T19:01:14.179Z,25.63
2023-03-02T19:03:45.668Z,25.40
2023-03-02T19:06:16.516Z,25.80
2023-03-02T19:08:44.950Z,20.47
2023-03-02T19:11:14.036Z,28.27
2023-03-02T19:13:42.230Z,25.27
2023-03-02T19:16:10.758Z,25.03
2023-03-02T19:18:39.061Z,25.87
2023-03-02T19:21:08.003Z,25.63
2023-03-02T19:23:38.393Z,24.40
2023-03-02T19:26:06.783Z,35.93
2023-03-02T19:28:36.137Z,44.17
2023-03-02T19:31:06.558Z,37.37
2023-03-02T19:33:35.034Z,46.20
2023-03-02T19:36:03.140Z,46.93
2023-03-02T19:38:31.337Z,47.63
2023-03-02T19:41:02.088Z,44.73
2023-03-02T19:43:30.556Z,41.10
2023-03-02T19:45:58.874Z,37.47
2023-03-02T19:48:27.174Z,35.70
2023-03-02T19:50:55.338Z,35.57
2023-03-02T19:53:23.742Z,32.73
2023-03-02T19:55:52.757Z,34.93
2023-03-02T19:58:23.704Z,33.47
2023-03-02T20:00:51.980Z,32.60
2023-03-02T20:03:20.242Z,32.53
2023-03-02T20:05:48.473Z,35.30
2023-03-02T20:08:17.351Z,33.90
2023-03-02T20:10:49.385Z,27.37
2023-03-02T20:13:18.137Z,27.27
2023-03-02T20:15:49.030Z,28.67
2023-03-02T20:18:19.869Z,33.17
2023-03-02T20:20:48.659Z,29.03
2023-03-02T20:23:17.675Z,28.77
2023-03-02T20:25:48.352Z,27.10
2023-03-02T20:28:19.307Z,29.63
2023-03-02T20:30:52.897Z,24.47
2023-03-02T20:33:23.331Z,28.23
2023-03-02T20:35:52.847Z,33.43
2023-03-02T20:38:29.310Z,33.57
2023-03-02T20:40:57.750Z,29.00
2023-03-02T20:43:26.357Z,25.97
2023-03-02T20:45:58.210Z,26.47
2023-03-02T20:48:26.459Z,41.03
2023-03-02T20:50:55.019Z,29.60
2023-03-02T20:53:23.621Z,29.77
2023-03-02T20:55:51.800Z,25.00
2023-03-02T20:58:19.988Z,28.20
2023-03-02T21:00:48.671Z,25.77
2023-03-02T21:03:18.207Z,24.20
2023-03-02T21:05:47.094Z,26.57
2023-03-02T21:08:15.899Z,27.47
2023-03-02T21:10:45.165Z,29.77
2023-03-02T21:13:13.607Z,31.00
2023-03-02T21:15:42.184Z,31.80
2023-03-02T21:18:10.483Z,28.00
2023-03-02T21:20:40.502Z,27.10
2023-03-02T21:23:08.861Z,23.23
2023-03-02T21:25:37.404Z,24.10
2023-03-02T21:28:05.686Z,27.27
2023-03-02T21:30:35.723Z,22.77
2023-03-02T21:33:04.634Z,25.10
2023-03-02T21:35:32.880Z,27.50
2023-03-02T21:38:05.168Z,26.60
2023-03-02T21:40:35.980Z,30.63
2023-03-02T21:43:05.466Z,26.83
2023-03-02T21:45:34.094Z,29.43
2023-03-02T21:48:02.324Z,29.83
2023-03-02T21:50:33.162Z,27.33
2023-03-02T21:53:03.476Z,28.67
2023-03-02T21:55:32.318Z,28.33
2023-03-02T21:58:00.865Z,28.63
2023-03-02T22:00:32.725Z,31.13
2023-03-02T22:03:01.361Z,31.87
2023-03-02T22:05:29.707Z,29.77
2023-03-02T22:07:58.503Z,31.43
2023-03-02T22:10:31.660Z,29.57
2023-03-02T22:13:15.452Z,32.47
2023-03-02T22:15:43.644Z,29.73
2023-03-02T22:18:13.475Z,31.53
2023-03-02T22:20:43.886Z,29.80
2023-03-02T22:23:13.816Z,27.20
2023-03-02T22:25:44.643Z,27.63
2023-03-02T22:28:17.981Z,30.53
2023-03-02T22:30:46.291Z,32.57
2023-03-02T22:33:19.880Z,31.17
2023-03-02T22:35:48.818Z,37.80
2023-03-02T22:38:25.043Z,35.90
2023-03-02T22:40:56.341Z,30.27
2023-03-02T22:43:29.258Z,31.80
2023-03-02T22:46:02.632Z,32.63
2023-03-02T22:48:31.686Z,36.17
2023-03-02T22:50:59.831Z,36.97
2023-03-02T22:53:30.117Z,35.73
2023-03-02T22:56:01.440Z,35.80
2023-03-02T22:58:33.042Z,33.20
2023-03-02T23:01:02.880Z,28.27
2023-03-02T23:03:39.930Z,28.67
2023-03-02T23:06:29.569Z,31.97
2023-03-02T23:08:59.997Z,30.17
2023-03-02T23:11:32.532Z,31.77
2023-03-02T23:14:03.212Z,29.23
2023-03-02T23:16:37.085Z,30.03
2023-03-02T23:19:05.949Z,33.03
2023-03-02T23:21:38.817Z,37.93
2023-03-02T23:24:09.242Z,37.20
2023-03-02T23:26:38.866Z,35.57
2023-03-02T23:29:07.803Z,48.67
2023-03-02T23:31:35.991Z,56.80
2023-03-02T23:34:04.176Z,57.93
2023-03-02T23:36:32.731Z,38.07
2023-03-02T23:39:00.950Z,32.70
2023-03-02T23:41:29.392Z,31.63
2023-03-02T23:43:59.193Z,57.33
2023-03-02T23:46:27.602Z,56.47
2023-03-02T23:48:56.617Z,74.57
2023-03-02T23:51:25.511Z,62.00
2023-03-02T23:53:53.929Z,57.70
2023-03-02T23:56:22.545Z,45.47
2023-03-02T23:58:50.948Z,35.37
